Weather reports worldwide

Advertisment
Zugspitze, Germany (10961): temperature & dewpoint: 10.01.2021 06:00:00 - 16.01.2021 06:00:00 (CET)Zugspitze, Germany (10961): wind speed & gusts: 10.01.2021 06:00:00 - 16.01.2021 06:00:00 (CET)Zugspitze, Germany (10961): wind direction: 10.01.2021 06:00:00 - 16.01.2021 06:00:00 (CET)Zugspitze, Germany (10961): visibility: 10.01.2021 06:00:00 - 16.01.2021 06:00:00 (CET)Zugspitze, Germany (10961): sunshine duration: 10.01.2021 06:00:00 - 16.01.2021 06:00:00 (CET)
Date & Time tt [°C] td [°C] ff [km/h] ff [kn] fx [km/h] fx [kn] dd vv [km] sd [min]
16.01.2021 06:00:00 -20,2 -22,5 36 20 43 23 NNW 13 0
16.01.2021 05:00:00 -18,2 -24,2 24 13 46 25 N 0,2 0
16.01.2021 04:00:00 -20,3 -22,5 32 17 44 24 NNW 0,3 0
16.01.2021 03:00:00 -20,3 -22,0 31 17 41 22 NNW 0,2 0
16.01.2021 02:00:00 -17,8 -20,4 23 12 36 19 N 49 0
16.01.2021 01:00:00 -17,3 -20,8 16 9 35 19 N 58 0
16.01.2021 00:00:00 -18,1 -25,8 22 12 30 16 N 50 0
15.01.2021 23:00:00 -18,2 -20,7 24 13 36 19 NNW 58 0
15.01.2021 22:00:00 -20,0 -22,0 23 12 37 20 NNW 0,1 0
15.01.2021 21:00:00 -19,2 -21,1 17 9 37 20 NW 47 0
15.01.2021 20:00:00 -18,6 -20,6 21 11 35 19 NNW 1,0 0
15.01.2021 19:00:00 -18,0 -23,2 25 14 35 19 NNW 1,0 0
15.01.2021 18:00:00 -18,1 -27,7 22 12 34 18 NNW 23 2
15.01.2021 17:00:00 -17,3 -31,8 24 13 33 18 NNW 34 60
15.01.2021 16:00:00 -17,0 -30,1 18 10 27 15 NNW 75 60
15.01.2021 15:00:00 -16,4 -29,1 18 10 29 15 NNW 30 60
15.01.2021 14:00:00 -15,8 -26,6 21 11 28 15 NNW 62 60
15.01.2021 13:00:00 -15,9 -24,8 16 9 23 12 NNW 48 60
15.01.2021 12:00:00 -16,3 -23,4 7 4 18 10 NNW 75 60
15.01.2021 11:00:00 -16,6 -21,9 8 5 21 11 N 56 60
15.01.2021 10:00:00 -16,6 -20,7 15 8 23 12 N 30 46
15.01.2021 09:00:00 -13,5 -14,7 15 8 26 14 NNW 0,1 0
15.01.2021 08:00:00 -13,2 -14,6 11 6 19 10 N 0,1 0
15.01.2021 07:00:00 -13,1 -14,1 11 6 26 14 NNW 0,3 0
15.01.2021 06:00:00 -12,8 -14,0 17 9 27 15 NNW 0,6 0
15.01.2021 05:00:00 -12,5 -13,6 21 11 40 21 NW 0,1 0
15.01.2021 04:00:00 -12,0 -13,2 24 13 48 26 NW 0,1 0
15.01.2021 03:00:00 -11,8 -13,0 21 11 41 22 NW 0,1 0
15.01.2021 02:00:00 -11,9 -13,3 22 12 51 28 W 0,1 0
15.01.2021 01:00:00 -12,0 -13,4 28 15 61 33 W 0,1 0
15.01.2021 00:00:00 -12,2 -13,6 33 18 59 32 W 0,1 0
14.01.2021 23:00:00 -12,3 -13,8 31 17 58 31 W 0,1 0
14.01.2021 22:00:00 -12,8 -14,3 31 17 46 25 W 0,1 0
14.01.2021 21:00:00 -13,6 -14,9 21 11 36 19 WNW 0,1 0
14.01.2021 20:00:00 -14,2 -15,7 23 12 30 16 NW 0,1 0
14.01.2021 19:00:00 -14,6 -16,3 22 12 40 22 N 0,3 0
14.01.2021 18:00:00 -15,6 -17,4 26 14 45 24 NNW - 0
14.01.2021 17:00:00 -15,7 -17,5 22 12 39 21 NNW - 0
14.01.2021 16:00:00 -16,2 -18,0 17 9 33 18 NNW - 0
14.01.2021 15:00:00 -16,3 -18,2 17 9 35 19 N - 0
14.01.2021 14:00:00 -16,3 -18,3 18 10 34 18 NNW - 0
14.01.2021 13:00:00 -16,4 -18,4 17 9 37 20 N - 0
14.01.2021 12:00:00 -17,0 -19,1 21 11 33 18 NNW - 0
14.01.2021 11:00:00 -16,7 -18,8 22 12 45 25 NNW - 0
14.01.2021 10:00:00 -16,2 -18,2 16 9 37 20 NNW - 0
14.01.2021 09:00:00 -16,1 -18,1 17 9 48 26 NNW - 0
14.01.2021 08:00:00 -15,5 -17,5 22 12 46 25 NNW 0,1 0
14.01.2021 07:00:00 -14,3 -16,1 28 15 48 26 NNW - 0
14.01.2021 06:00:00 -14,1 -15,9 22 12 41 22 NNW 0,2 0
14.01.2021 05:00:00 -11,3 -12,8 26 14 69 37 NNW 0,4 0
14.01.2021 04:00:00 -10,5 -12,0 44 24 74 40 NNW - 0
14.01.2021 03:00:00 -10,3 -11,8 39 21 84 45 NNW - 0
14.01.2021 02:00:00 -10,3 -11,8 44 24 75 40 NNW - 0
14.01.2021 01:00:00 -10,4 -11,9 43 23 78 42 NNW 0,5 0
14.01.2021 00:00:00 -10,6 -12,1 48 26 74 40 NNW 1,0 0
13.01.2021 23:00:00 -10,8 -12,3 48 26 79 42 NNW 1,6 0
13.01.2021 22:00:00 -11,5 -13,1 44 24 69 37 WNW 0,3 0
13.01.2021 21:00:00 -12,5 -14,2 44 24 81 44 NNW 0,5 0
13.01.2021 20:00:00 -15,0 -17,0 48 26 75 41 NW 2,9 0
13.01.2021 19:00:00 -15,6 -18,1 37 20 84 45 WNW 0,5 0
13.01.2021 18:00:00 -15,5 -17,4 37 20 79 43 W 1,0 0
13.01.2021 17:00:00 -15,9 -17,8 36 19 76 41 WNW 0,1 0
13.01.2021 16:00:00 -17,0 -19,4 36 20 78 42 W 1,2 1
13.01.2021 15:00:00 -17,0 -19,1 33 18 79 43 W 0,2 48
13.01.2021 14:00:00 -16,9 -18,9 37 20 85 46 WSW 0,2 13
13.01.2021 13:00:00 -16,9 -19,0 34 18 71 38 WNW 0,1 2
13.01.2021 12:00:00 -17,0 -19,1 37 20 61 33 NW 0,1 2
13.01.2021 11:00:00 -16,8 -18,9 31 17 60 32 NW 0,2 0
13.01.2021 10:00:00 -16,6 -18,7 33 18 58 32 NW 0,1 0
13.01.2021 09:00:00 -16,5 -18,6 32 17 53 29 NNW 0,1 0
13.01.2021 08:00:00 -16,7 -18,7 24 13 56 30 NNW 0,1 0
13.01.2021 07:00:00 -16,5 -18,5 24 13 56 31 NNW 0,1 0
13.01.2021 06:00:00 -16,3 -18,2 29 15 56 30 NNW 0,1 0
13.01.2021 05:00:00 -15,3 -17,1 23 12 48 26 NW 0,1 0
13.01.2021 04:00:00 -14,9 -16,7 23 12 46 25 NNW 0,1 0
13.01.2021 03:00:00 -14,4 -16,1 18 10 39 21 NNW 0,1 0
13.01.2021 02:00:00 -13,6 -15,3 21 11 38 21 NNW 0,1 0
13.01.2021 01:00:00 -13,0 -14,7 22 12 40 22 NNW 0,1 0
13.01.2021 00:00:00 -12,4 -14,0 26 14 57 31 NNW 0,1 0
12.01.2021 23:00:00 -12,0 -13,6 38 20 66 35 NNW 0,2 0
12.01.2021 22:00:00 -12,1 -13,6 26 14 61 33 WNW 0,1 0
12.01.2021 21:00:00 -11,9 -13,5 33 18 68 37 NW 0,1 0
12.01.2021 20:00:00 -12,0 -13,5 31 17 80 43 W 0,1 0
12.01.2021 19:00:00 -12,2 -13,8 30 16 80 43 WNW 0,1 0
12.01.2021 18:00:00 -12,2 -13,7 32 17 81 44 WSW 0,1 0
12.01.2021 17:00:00 -12,1 -13,7 43 23 93 50 WSW 0,1 0
12.01.2021 16:00:00 -12,2 -13,8 54 29 91 49 WSW 0,2 0
12.01.2021 15:00:00 -12,2 -13,8 51 28 87 47 WSW 0,2 0
12.01.2021 14:00:00 -12,1 -13,7 53 29 99 54 WSW 0,2 0
12.01.2021 13:00:00 -12,3 -14,0 68 37 96 52 WSW 0,2 0
12.01.2021 12:00:00 -12,6 -14,3 68 37 94 51 WSW 0,3 0
12.01.2021 11:00:00 -13,3 -16,5 50 27 86 47 WSW 11 0
12.01.2021 10:00:00 -13,0 -17,6 44 24 72 39 WSW 9 0
12.01.2021 09:00:00 -12,6 -19,3 27 15 66 36 W 7 0
12.01.2021 08:00:00 -12,6 -16,4 37 20 61 33 WSW 10 0
12.01.2021 07:00:00 -12,5 -14,3 23 12 49 26 WNW 1,4 0
12.01.2021 06:00:00 -12,4 -13,9 22 12 45 24 WNW 2,4 0
12.01.2021 05:00:00 -12,1 -14,3 24 13 44 24 NNW 1,3 0
12.01.2021 04:00:00 -12,3 -15,8 26 14 41 22 NNW 3,6 0
12.01.2021 03:00:00 -12,9 -18,9 21 11 33 18 NW 68 0
12.01.2021 02:00:00 -12,4 -17,2 26 14 39 21 NNW 64 0
12.01.2021 01:00:00 -12,7 -29,1 23 12 32 18 NW 60 0
12.01.2021 00:00:00 -12,2 -31,6 21 11 30 16 NNW 67 0
11.01.2021 23:00:00 -11,4 -30,0 23 12 34 18 NNW 61 0
11.01.2021 22:00:00 -11,2 -28,2 10 6 24 13 NNW 65 0
11.01.2021 21:00:00 -11,4 -28,1 16 9 26 14 N 48 0
11.01.2021 20:00:00 -11,6 -28,9 9 5 18 10 NNW 63 0
11.01.2021 19:00:00 -11,6 -29,6 6 3 24 13 NNW 71 0
11.01.2021 18:00:00 -11,4 -29,7 7 4 26 14 NNW 67 0
11.01.2021 17:00:00 -11,3 -31,2 18 10 26 14 NNW 59 59
11.01.2021 16:00:00 -11,5 -28,1 12 6 27 15 NNW 67 60
11.01.2021 15:00:00 -11,8 -27,2 8 5 26 14 N 75 60
11.01.2021 14:00:00 -11,9 -29,7 14 7 31 17 NNW 55 60
11.01.2021 13:00:00 -11,9 -31,7 11 6 29 16 NNW 53 60
11.01.2021 12:00:00 -12,6 -29,8 11 6 32 17 N 65 60
11.01.2021 11:00:00 -12,7 -29,5 14 8 34 18 NNW 46 60
11.01.2021 10:00:00 -13,1 -27,9 13 7 40 21 N 75 60
11.01.2021 09:00:00 -13,5 -34,8 13 7 40 22 N 18 47
11.01.2021 08:00:00 -13,6 -34,3 16 8 38 20 N 34 0
11.01.2021 07:00:00 -13,4 -34,3 19 10 37 20 NNW 10 0
11.01.2021 06:00:00 -13,6 -33,3 22 12 38 21 NNW 60 0
11.01.2021 05:00:00 -13,1 -34,8 14 8 35 19 NNW 42 0
11.01.2021 04:00:00 -13,5 -33,7 13 7 34 19 N 5 0
11.01.2021 03:00:00 -13,8 -33,6 13 7 32 17 NNE 4,5 0
11.01.2021 02:00:00 -14,0 -29,6 14 8 29 16 N 41 0
11.01.2021 01:00:00 -13,9 -30,6 16 9 29 16 N 58 0
11.01.2021 00:00:00 -14,1 -33,2 18 10 39 21 N 6 0
10.01.2021 23:00:00 -14,1 -31,5 19 11 42 23 N 9 0
10.01.2021 22:00:00 -14,2 -34,9 16 9 36 20 NNW 1,4 0
10.01.2021 21:00:00 -14,2 -35,3 14 7 34 18 NNW 3,2 0
10.01.2021 20:00:00 -13,8 -35,5 10 5 35 19 NNW 33 0
10.01.2021 19:00:00 -14,5 -30,3 7 4 22 12 NW 72 0
10.01.2021 18:00:00 -14,4 -30,3 6 4 16 9 NW 66 0
10.01.2021 17:00:00 -14,5 -30,3 6 3 19 11 NW 60 57
10.01.2021 16:00:00 -13,7 -34,3 6 4 11 6 NW 46 60
10.01.2021 15:00:00 -14,0 -33,0 5 3 11 6 NNW 75 60
10.01.2021 14:00:00 -14,2 -31,3 6 4 13 7 N 75 60
10.01.2021 13:00:00 -14,1 -29,9 9 5 12 7 N 74 60
10.01.2021 12:00:00 -14,6 -30,8 5 3 10 6 N 58 60
10.01.2021 11:00:00 -15,1 -30,1 5 3 15 8 N 74 60
10.01.2021 10:00:00 -14,9 -29,2 6 3 19 10 NNW 71 60
10.01.2021 09:00:00 -15,1 -27,8 10 5 26 14 NNW 59 35
10.01.2021 08:00:00 -15,2 -27,2 10 6 27 15 NNW 47 0
10.01.2021 07:00:00 -14,9 -28,3 12 6 18 10 NNW 58 0
10.01.2021 06:00:00 -14,9 -26,4 14 7 22 12 N 58 0

tt = temperature
td = dewpoint
ff = wind speed
fx = gusts
dd = wind direction
vv = visibility
sd = sunshine duration

Next stations